Flight Track Log - Related Links

Times and Time Zones

All times are in EDT time to prevent confusion due to time zone crossing. See the ASQ5291 flight status page for this flight to view local times or setup timezone preferences in your user account.

Time Position Orientation Groundspeed Altitude Reporting Facility
EDT Latitude Longitude Course Direction KTS MPH feet Rate Location/Type
Tue 07:23:18 PM 33.6500 -84.3833 73° East 156 180 2,900  Level Atlanta TRACON
Tue 07:24:18 PM 33.6667 -84.3167 73° East 243 280 5,100 2,632 Climbing Atlanta TRACON
Tue 07:25:12 PM 33.7333 -84.2833 23° Northeast 282 325 7,900 2,400 Climbing Atlanta TRACON
Tue 07:26:53 PM 33.8125 -84.3639 320° Northwest 303 349 11,300 1,901 Climbing Atlanta Center
Tue 07:27:53 PM 33.7747 -84.4711 247° West 289 333 13,000 1,400 Climbing Atlanta Center
Tue 07:28:53 PM 33.7303 -84.5933 246° West 334 384 14,100 1,100 Climbing Atlanta Center
Tue 07:29:53 PM 33.6817 -84.7153 244° Southwest 382 440 15,200 1,600 Climbing Atlanta Center
Tue 07:30:53 PM 33.6331 -84.8372 244° Southwest 389 448 17,300 1,400 Climbing Atlanta Center
Tue 07:31:53 PM 33.5864 -84.9489 243° Southwest 395 455 18,000 350 Climbing Atlanta Center
Tue 07:32:53 PM 33.5375 -85.0681 244° Southwest 395 455 18,000  Level Atlanta Center
Tue 07:33:53 PM 33.4925 -85.1847 245° Southwest 395 455 18,000  Level Atlanta Center
Tue 07:34:53 PM 33.4103 -85.2756 223° Southwest 395 455 18,000  Level Atlanta Center
Tue 07:35:53 PM 33.3258 -85.3614 220° Southwest 400 460 18,000  Level Atlanta Center
Tue 07:36:53 PM 33.2500 -85.4397 221° Southwest 406 467 18,000  Level Atlanta Center
Tue 07:37:53 PM 33.1675 -85.5203 219° Southwest 406 467 18,000  Level Atlanta Center
Tue 07:38:53 PM 33.0872 -85.6058 222° Southwest 401 461 18,000  Level Atlanta Center
Tue 07:39:53 PM 33.0025 -85.6883 219° Southwest 401 461 18,000  Level Atlanta Center
Tue 07:40:53 PM 32.9200 -85.7711 220° Southwest 396 456 18,000 -950 Level Atlanta Center
Tue 07:41:53 PM 32.8414 -85.8633 225° Southwest 396 456 16,100 -2,050 Descending Atlanta Center
Tue 07:42:53 PM 32.7669 -85.9631 228° Southwest 404 465 13,900 -2,300 Descending Atlanta Center
Tue 07:43:53 PM 32.7008 -86.0531 229° Southwest 388 447 11,500 -1,900 Descending Atlanta Center
Tue 07:44:53 PM 32.6431 -86.1308 229° Southwest 352 405 10,100 -1,750 Descending Atlanta Center
Tue 07:45:53 PM 32.5939 -86.2058 232° Southwest 317 365 8,000 -1,600 Descending Atlanta Center
Tue 07:46:53 PM 32.5467 -86.2764 232° Southwest 293 337 6,900 -1,450 Descending Atlanta Center
Tue 07:47:53 PM 32.4972 -86.3464 230° Southwest 286 329 5,100 -1,800 Descending Atlanta Center
Tue 07:48:53 PM 32.4481 -86.4092 227° Southwest 274 315 3,300 -1,800 Descending Atlanta Center
Tue 07:50:00 PM 32.3392 -86.3979 220° Southwest  Level Estimated
Tue 07:57:00 PM 32.3000 -86.3833 220° Southwest  Level FlightAware Approximate
Tue 07:58:00 PM 32.3006 -86.3940 220° Southwest  Level Estimated
Tue 07:59:00 PM 32.3006 -86.3940 220° Southwest  Level Estimated
Tue 08:00:00 PM 32.3006 -86.3940 220° Southwest  Level Estimated

Login

Don't have an account? Register now (free) for customized features, flight alerts, and more!